Time;durP1;ratioP1;P1;durP2;ratioP2;P2;SDS_P1;SDS_P2;PMS_P1;PMS_P2;Temp;Humidity;BMP_temperature;BMP_pressure;BME280_temperature;BME280_humidity;BME280_pressure;Samples;Min_cycle;Max_cycle;Signal;HPM_P1;HPM_P2
2021/07/06 00:00:23;;;;;;;;;16.60;16.60;;;;;24.12;83.37;100021.84;4979821;28;9647;-77
2021/07/06 00:03:19;;;;;;;;;14.00;14.00;;;;;24.20;83.44;100019.63;4982221;28;8870;-78
2021/07/06 00:06:14;;;;;;;;;12.80;12.60;;;;;24.27;82.95;100033.59;4979816;28;8874;-77
2021/07/06 00:09:10;;;;;;;;;12.80;12.80;;;;;24.01;83.79;100026.16;4953838;28;9612;-78
2021/07/06 00:12:06;;;;;;;;;13.60;13.60;;;;;24.16;83.46;100037.94;4942343;29;8835;-77
2021/07/06 00:15:04;;;;;;;;;12.80;12.80;;;;;24.16;82.94;100035.91;4991219;28;8855;-79
2021/07/06 00:18:00;;;;;;;;;11.00;11.00;;;;;24.16;83.08;100027.41;4967328;28;8998;-78
2021/07/06 00:20:58;;;;;;;;;11.60;11.60;;;;;24.09;83.21;100011.44;4958157;28;8867;-78
2021/07/06 00:23:54;;;;;;;;;11.60;11.60;;;;;24.24;82.82;100026.00;4977924;28;8915;-77
2021/07/06 00:26:49;;;;;;;;;13.00;13.00;;;;;24.16;83.30;100012.50;4993100;28;8886;-77
2021/07/06 00:29:45;;;;;;;;;15.40;15.40;;;;;24.00;83.70;100021.72;4995201;28;8885;-78
2021/07/06 00:32:40;;;;;;;;;11.80;11.80;;;;;24.24;83.41;100019.56;4996374;28;8842;-77
2021/07/06 00:35:36;;;;;;;;;9.80;8.60;;;;;24.32;82.75;100023.81;4961295;28;9736;-77
2021/07/06 00:38:32;;;;;;;;;14.20;14.20;;;;;24.20;82.58;100016.81;4957981;28;8843;-78
2021/07/06 00:41:28;;;;;;;;;12.40;12.40;;;;;24.23;82.48;100018.78;4958141;28;8858;-78
2021/07/06 00:44:24;;;;;;;;;11.00;10.80;;;;;24.29;82.31;100014.16;4958876;28;8921;-78
2021/07/06 00:47:37;;;;;;;;;10.40;10.40;;;;;24.16;83.05;100009.69;4963965;28;8872;-78
2021/07/06 00:50:33;;;;;;;;;11.80;11.80;;;;;24.03;83.20;100020.84;4976298;28;8852;-78
2021/07/06 00:53:28;;;;;;;;;13.80;13.00;;;;;24.25;82.90;100027.59;4984490;28;8985;-78
2021/07/06 00:56:24;;;;;;;;;12.00;12.00;;;;;24.11;82.41;100013.81;4983503;28;8928;-78
2021/07/06 00:59:21;;;;;;;;;10.60;10.60;;;;;24.19;83.54;100028.56;4996863;28;8859;-78
2021/07/06 01:02:16;;;;;;;;;12.20;11.80;;;;;24.09;82.74;100028.38;4975511;28;9656;-77
2021/07/06 01:05:15;;;;;;;;;12.20;12.20;;;;;23.82;82.45;100022.13;4976018;28;8963;-78
2021/07/06 01:08:10;;;;;;;;;9.00;9.00;;;;;23.90;82.93;100029.22;4975951;28;8899;-77
2021/07/06 01:11:07;;;;;;;;;10.20;10.20;;;;;23.82;82.66;100028.56;4956865;28;8869;-77
2021/07/06 01:14:05;;;;;;;;;10.60;10.60;;;;;24.02;82.81;100036.22;4964827;28;8971;-77
2021/07/06 01:17:01;;;;;;;;;9.20;9.20;;;;;23.99;82.64;100034.25;4977231;28;8840;-77
2021/07/06 01:19:58;;;;;;;;;8.40;8.40;;;;;23.97;82.69;100048.03;4975622;28;8839;-77
2021/07/06 01:22:54;;;;;;;;;10.40;9.20;;;;;23.96;82.47;100047.22;4943583;28;8855;-77
2021/07/06 01:25:52;;;;;;;;;8.40;8.40;;;;;23.98;82.41;100043.97;4943417;28;8960;-76
2021/07/06 01:28:48;;;;;;;;;7.00;7.00;;;;;23.95;82.18;100045.66;4957516;28;8858;-77
2021/07/06 01:31:51;;;;;;;;;8.00;8.00;;;;;24.17;81.29;100047.97;4956810;28;8862;-78
2021/07/06 01:34:48;;;;;;;;;7.20;7.20;;;;;24.01;81.42;100046.72;4944938;28;8854;-78
2021/07/06 01:37:48;;;;;;;;;8.40;8.40;;;;;23.90;81.30;100043.34;4943060;28;8871;-78
2021/07/06 01:40:44;;;;;;;;;10.00;10.00;;;;;23.67;81.56;100046.25;4958551;28;8850;-79
2021/07/06 01:43:40;;;;;;;;;9.00;9.00;;;;;23.84;81.89;100048.69;4956610;28;8870;-78
2021/07/06 01:46:39;;;;;;;;;10.40;10.40;;;;;23.85;81.58;100053.13;4955725;28;8875;-77
2021/07/06 01:49:35;;;;;;;;;9.00;9.00;;;;;23.86;82.01;100048.28;4955761;28;8897;-77
2021/07/06 01:52:30;;;;;;;;;6.40;6.40;;;;;23.68;81.90;100045.81;4988506;28;8846;-78
2021/07/06 01:55:29;;;;;;;;;8.60;8.40;;;;;23.83;81.47;100049.13;4995012;28;8852;-78
2021/07/06 01:58:26;;;;;;;;;6.80;6.80;;;;;23.99;81.33;100048.38;4995924;28;8850;-76
2021/07/06 02:01:21;;;;;;;;;7.00;6.40;;;;;23.73;80.98;100042.50;4995149;28;9583;-75
2021/07/06 02:04:17;;;;;;;;;7.20;7.20;;;;;23.86;81.06;100048.28;4994817;28;8921;-75
2021/07/06 02:07:13;;;;;;;;;7.00;7.00;;;;;23.87;80.81;100046.25;4994372;28;8838;-77
2021/07/06 02:10:09;;;;;;;;;8.40;8.40;;;;;23.83;81.11;100049.13;4981765;28;8841;-77
2021/07/06 02:13:11;;;;;;;;;7.80;7.40;;;;;23.98;79.93;100055.25;4974615;28;8852;-75
2021/07/06 02:16:07;;;;;;;;;7.60;7.60;;;;;24.05;80.42;100040.97;4975550;28;9614;-76
2021/07/06 02:19:03;;;;;;;;;5.40;5.40;;;;;24.14;79.65;100052.47;4974552;28;8845;-76
2021/07/06 02:21:58;;;;;;;;;7.80;7.80;;;;;24.15;79.40;100056.88;4989951;28;8838;-75
2021/07/06 02:24:54;;;;;;;;;7.00;7.00;;;;;23.92;80.42;100046.50;4994189;28;8842;-75
2021/07/06 02:27:51;;;;;;;;;8.00;8.00;;;;;23.84;80.95;100050.72;4993745;28;8850;-75
2021/07/06 02:30:48;;;;;;;;;8.80;8.80;;;;;23.79;81.21;100054.88;4994620;28;8839;-77
2021/07/06 02:33:44;;;;;;;;;8.80;8.80;;;;;23.96;80.84;100055.69;4994353;28;9642;-77
2021/07/06 02:36:39;;;;;;;;;10.00;10.00;;;;;23.89;80.64;100053.03;4992696;28;9636;-76
2021/07/06 02:39:35;;;;;;;;;11.60;11.60;;;;;23.83;80.63;100055.56;4968130;28;8847;-77
2021/07/06 02:42:31;;;;;;;;;12.20;12.20;;;;;23.36;82.83;100046.47;4954918;28;8851;-79
2021/07/06 02:45:29;;;;;;;;;11.60;11.60;;;;;23.59;82.29;100045.59;4955681;28;8850;-78
2021/07/06 02:48:25;;;;;;;;;14.00;14.00;;;;;23.68;82.42;100047.84;4956305;28;8842;-77
2021/07/06 02:51:21;;;;;;;;;11.40;11.00;;;;;23.82;81.97;100039.88;4973634;28;8856;-77
2021/07/06 02:54:16;;;;;;;;;13.40;13.40;;;;;24.03;80.93;100054.75;4973906;28;8856;-77
2021/07/06 02:57:33;;;;;;;;;14.80;13.80;;;;;23.91;81.30;100052.59;4960654;28;8865;-78
2021/07/06 03:00:30;;;;;;;;;16.80;16.80;;;;;24.09;80.67;100053.78;4974116;28;8857;-77
2021/07/06 03:03:25;;;;;;;;;14.40;14.40;;;;;23.95;81.69;100056.16;4973938;28;8871;-77
2021/07/06 03:06:21;;;;;;;;;17.60;17.60;;;;;24.01;81.15;100051.59;4973881;28;8987;-78
2021/07/06 03:09:16;;;;;;;;;21.60;21.60;;;;;24.01;81.51;100060.84;4959722;28;8840;-76
2021/07/06 03:12:12;;;;;;;;;23.00;23.00;;;;;23.77;82.50;100056.53;4961543;28;8879;-78
2021/07/06 03:15:10;;;;;;;;;19.40;19.20;;;;;23.92;82.20;100059.81;4973833;28;8973;-77
2021/07/06 03:18:06;;;;;;;;;25.20;25.20;;;;;23.86;82.45;100059.56;4953731;28;8965;-77
2021/07/06 03:21:02;;;;;;;;;20.80;20.80;;;;;23.84;82.39;100059.19;4942322;28;8862;-78
2021/07/06 03:23:57;;;;;;;;;23.00;23.00;;;;;23.83;81.84;100064.03;4954320;28;9608;-78
2021/07/06 03:26:53;;;;;;;;;24.60;24.60;;;;;23.80;81.51;100069.78;4954497;28;8842;-78
2021/07/06 03:29:49;;;;;;;;;25.60;25.20;;;;;23.89;81.36;100069.97;4954589;28;8839;-77
2021/07/06 03:32:47;;;;;;;;;20.80;20.80;;;;;23.56;82.06;100075.50;4959779;28;8957;-77
2021/07/06 03:35:44;;;;;;;;;22.00;22.00;;;;;23.43;82.37;100068.09;4974272;28;8844;-78
2021/07/06 03:38:40;;;;;;;;;23.60;23.60;;;;;23.84;81.60;100062.81;4958824;28;8880;-77
2021/07/06 03:41:36;;;;;;;;;22.80;22.80;;;;;23.68;81.64;100064.78;4953908;29;8847;-77
2021/07/06 03:44:33;;;;;;;;;19.00;18.60;;;;;23.65;81.57;100069.28;4955365;29;8866;-77
2021/07/06 03:47:28;;;;;;;;;21.20;21.20;;;;;23.75;80.56;100073.09;4942697;29;9588;-77
2021/07/06 03:50:25;;;;;;;;;21.40;21.20;;;;;23.65;81.02;100066.47;4986811;28;8900;-78
2021/07/06 03:53:21;;;;;;;;;22.40;22.40;;;;;23.58;80.33;100063.75;4993949;28;8834;-77
2021/07/06 03:56:17;;;;;;;;;22.00;22.00;;;;;23.55;80.07;100068.25;4992641;28;9686;-82
2021/07/06 03:59:14;;;;;;;;;23.00;22.80;;;;;24.04;79.88;100071.25;4994184;28;8847;-77
2021/07/06 04:02:10;;;;;;;;;21.40;21.40;;;;;24.00;78.88;100066.91;4994188;28;8827;-79
2021/07/06 04:05:08;;;;;;;;;21.20;21.20;;;;;24.22;78.65;100068.00;4996261;28;8857;-77
2021/07/06 04:08:05;;;;;;;;;23.20;22.20;;;;;24.18;79.03;100067.31;4983395;28;8850;-76
2021/07/06 04:11:00;;;;;;;;;27.40;27.40;;;;;24.29;78.12;100067.84;4958054;28;8964;-77
2021/07/06 04:13:56;;;;;;;;;24.20;23.80;;;;;24.19;77.76;100071.72;4996288;28;9569;-77
2021/07/06 04:16:52;;;;;;;;;22.20;22.20;;;;;24.17;77.49;100068.56;4996091;28;8856;-77
2021/07/06 04:19:47;;;;;;;;;21.20;21.20;;;;;24.29;77.76;100070.66;4986141;28;8841;-78
2021/07/06 04:22:45;;;;;;;;;19.60;19.60;;;;;23.95;78.17;100068.25;4976396;28;8832;-80
2021/07/06 04:25:41;;;;;;;;;21.40;20.20;;;;;24.30;78.19;100068.63;4969286;28;8919;-77
2021/07/06 04:28:36;;;;;;;;;20.80;20.80;;;;;24.40;77.57;100067.63;4982062;28;8858;-78
2021/07/06 04:31:32;;;;;;;;;24.60;24.60;;;;;24.50;76.56;100065.78;4970471;28;8854;-75
2021/07/06 04:34:29;;;;;;;;;22.80;22.80;;;;;24.54;76.65;100070.13;4958991;28;8839;-78
2021/07/06 04:37:25;;;;;;;;;23.00;21.60;;;;;24.20;76.81;100067.66;4955317;28;8860;-81
2021/07/06 04:40:20;;;;;;;;;24.40;24.40;;;;;24.34;76.91;100063.75;4969861;28;8847;-77
2021/07/06 04:43:17;;;;;;;;;26.20;26.20;;;;;24.63;76.57;100067.47;4977044;28;8832;-78
2021/07/06 04:46:13;;;;;;;;;24.00;24.00;;;;;24.61;76.20;100069.13;4997646;28;8843;-77
2021/07/06 04:49:09;;;;;;;;;23.80;23.80;;;;;24.56;77.32;100061.97;4996081;28;8878;-77
2021/07/06 04:52:05;;;;;;;;;25.00;25.00;;;;;24.33;77.55;100074.25;4988174;28;8856;-82
2021/07/06 04:55:01;;;;;;;;;21.00;21.00;;;;;24.30;77.29;100069.44;4957458;28;8835;-79
2021/07/06 04:57:59;;;;;;;;;22.40;22.40;;;;;24.44;77.55;100079.63;4958378;28;8871;-79
2021/07/06 05:00:56;;;;;;;;;19.40;19.40;;;;;24.32;77.53;100077.50;4964054;28;8832;-82
2021/07/06 05:03:52;;;;;;;;;20.80;20.80;;;;;24.34;77.54;100075.84;4977388;28;8871;-78
2021/07/06 05:06:48;;;;;;;;;21.40;20.40;;;;;24.42;77.86;100079.28;4964326;28;9716;-79
2021/07/06 05:09:44;;;;;;;;;20.80;20.80;;;;;24.30;77.77;100088.41;4990806;28;8868;-78
2021/07/06 05:12:40;;;;;;;;;20.80;20.80;;;;;24.26;78.43;100088.50;4982281;28;8850;-78
2021/07/06 05:15:35;;;;;;;;;23.20;23.00;;;;;24.36;78.02;100081.84;4994329;28;8830;-77
2021/07/06 05:18:31;;;;;;;;;22.60;22.60;;;;;24.46;78.58;100090.50;4964302;28;8856;-77
2021/07/06 05:21:26;;;;;;;;;21.80;21.80;;;;;24.00;79.41;100081.84;4963280;28;8860;-78
2021/07/06 05:24:22;;;;;;;;;20.80;20.80;;;;;23.91;79.32;100084.44;4980275;28;8944;-81
2021/07/06 19:12:38;;;;;;;;;19.20;17.40;;;;;24.69;83.91;100726.53;5602610;23;8907;-81
2021/07/06 19:15:08;;;;;;;;;18.20;18.20;;;;;24.56;84.05;100720.66;4961285;28;8857;-84
2021/07/06 19:18:04;;;;;;;;;18.80;18.80;;;;;24.59;83.26;100719.78;4944661;28;8843;-84
2021/07/06 19:21:00;;;;;;;;;19.80;19.60;;;;;24.75;82.88;100724.78;4952805;28;8862;-83
2021/07/06 19:26:56;;;;;;;;;16.80;16.60;;;;;24.67;82.50;100728.97;4940685;29;8849;-85
2021/07/06 19:33:06;;;;;;;;;21.00;21.00;;;;;25.03;82.14;100731.25;4934513;29;8848;-84
2021/07/06 19:36:02;;;;;;;;;19.60;19.60;;;;;25.11;81.28;100729.91;4935696;29;9547;-82
2021/07/06 19:38:58;;;;;;;;;19.80;19.80;;;;;24.71;81.91;100735.38;4935676;29;8841;-83
2021/07/06 19:41:54;;;;;;;;;20.00;20.00;;;;;24.48;82.74;100738.13;4934867;28;8837;-85
2021/07/06 19:44:50;;;;;;;;;21.80;21.80;;;;;24.83;82.15;100736.81;4921800;29;8847;-84
2021/07/06 19:47:45;;;;;;;;;18.80;18.80;;;;;24.79;82.20;100741.72;4951620;29;8902;-84
2021/07/06 19:50:41;;;;;;;;;16.20;16.20;;;;;24.87;82.25;100737.56;4934684;29;8899;-84
2021/07/06 19:53:37;;;;;;;;;16.20;16.20;;;;;24.71;82.23;100741.03;4934193;29;8929;-84
2021/07/06 19:56:32;;;;;;;;;17.40;17.40;;;;;24.49;82.77;100746.19;4941154;29;8847;-85
2021/07/06 19:59:28;;;;;;;;;18.40;18.40;;;;;24.60;82.61;100738.34;4941209;28;8838;-85
2021/07/06 20:02:26;;;;;;;;;16.80;16.80;;;;;24.72;82.17;100741.84;4940138;29;8938;-83
2021/07/06 20:05:21;;;;;;;;;18.20;18.20;;;;;24.67;81.74;100743.91;4934898;29;8885;-85
2021/07/06 20:08:17;;;;;;;;;18.00;17.60;;;;;24.73;82.00;100744.22;4935281;29;8915;-85
2021/07/06 20:11:13;;;;;;;;;16.80;16.80;;;;;24.68;82.34;100745.50;4950500;29;8855;-85
2021/07/06 20:14:11;;;;;;;;;16.80;16.80;;;;;24.76;82.29;100742.56;4953855;28;8855;-85
2021/07/06 20:17:07;;;;;;;;;16.80;16.80;;;;;24.74;82.02;100745.03;4941255;28;8917;-84
2021/07/06 20:20:05;;;;;;;;;18.40;18.00;;;;;24.69;82.34;100746.31;4926160;29;8860;-85
2021/07/06 20:23:00;;;;;;;;;14.20;14.20;;;;;24.90;81.91;100740.31;4921512;29;9172;-85
2021/07/06 20:25:56;;;;;;;;;17.00;17.00;;;;;24.94;81.56;100754.41;4921782;29;8849;-83
2021/07/06 20:28:52;;;;;;;;;18.20;18.20;;;;;24.54;82.43;100759.84;4921970;29;8852;-84
2021/07/06 20:31:48;;;;;;;;;20.60;20.60;;;;;24.48;83.39;100755.91;4934277;29;8878;-83
2021/07/06 20:34:44;;;;;;;;;15.80;15.80;;;;;24.30;84.17;100752.47;4951211;29;8881;-86
2021/07/06 20:37:40;;;;;;;;;16.40;16.40;;;;;24.63;83.12;100748.03;4952628;29;9033;-85
2021/07/06 20:40:35;;;;;;;;;18.00;18.00;;;;;24.37;83.27;100752.41;4953460;29;8835;-86
2021/07/06 20:43:31;;;;;;;;;17.20;17.20;;;;;24.47;83.94;100747.84;4940791;29;8878;-85
2021/07/06 20:46:27;;;;;;;;;19.20;19.20;;;;;24.27;84.26;100756.16;4956820;28;8921;-85
2021/07/06 20:49:22;;;;;;;;;17.80;17.20;;;;;24.53;83.56;100758.22;4925629;29;8875;-85
2021/07/06 20:52:18;;;;;;;;;20.20;20.20;;;;;24.61;83.27;100748.44;4949246;29;8861;-84
2021/07/06 20:55:14;;;;;;;;;18.20;18.20;;;;;24.45;83.94;100761.59;4925246;29;8853;-86
2021/07/06 20:58:09;;;;;;;;;18.20;18.20;;;;;24.57;83.11;100759.00;4925115;29;8869;-85
2021/07/06 21:01:05;;;;;;;;;18.40;18.40;;;;;24.54;83.72;100756.22;4925766;29;8833;-86
2021/07/06 21:04:02;;;;;;;;;19.00;19.00;;;;;24.47;83.17;100762.78;4937723;29;8921;-85
2021/07/06 21:06:58;;;;;;;;;20.40;20.40;;;;;24.61;82.85;100751.28;4937469;29;8876;-86
2021/07/06 21:09:54;;;;;;;;;18.00;18.00;;;;;24.40;84.11;100746.72;4925215;29;8857;-84
2021/07/06 21:12:51;;;;;;;;;18.00;18.00;;;;;24.21;84.87;100752.97;4936312;28;8998;-86
2021/07/06 21:15:47;;;;;;;;;16.60;16.60;;;;;24.27;84.68;100747.66;4957296;28;8851;-86
2021/07/06 21:18:42;;;;;;;;;17.40;17.40;;;;;24.47;84.17;100751.47;4955765;28;8969;-85
2021/07/06 21:21:38;;;;;;;;;17.60;17.60;;;;;24.17;85.44;100751.44;4941680;28;8853;-87
2021/07/06 21:24:33;;;;;;;;;21.40;21.40;;;;;24.19;85.47;100754.63;4945840;29;9583;-86
2021/07/06 21:27:29;;;;;;;;;18.80;18.80;;;;;24.03;86.40;100752.41;4925360;29;8880;-86
2021/07/06 21:30:24;;;;;;;;;20.00;20.00;;;;;24.01;87.13;100750.00;4924849;29;8879;-85
2021/07/06 21:33:20;;;;;;;;;16.40;16.40;;;;;24.52;84.30;100750.97;4937411;29;8865;-86
2021/07/06 21:36:15;;;;;;;;;17.00;17.00;;;;;24.15;85.54;100754.66;4926095;29;8842;-85
2021/07/06 21:39:11;;;;;;;;;23.00;23.00;;;;;24.30;85.49;100756.09;4924501;29;8853;-86
2021/07/06 21:42:07;;;;;;;;;20.60;20.60;;;;;24.16;85.40;100756.28;4924522;29;8845;-87
2021/07/06 21:45:05;;;;;;;;;17.20;16.80;;;;;24.39;84.56;100747.94;4940552;28;9770;-85
2021/07/06 21:48:00;;;;;;;;;18.40;18.40;;;;;24.38;84.83;100756.81;4943448;28;8851;-86
2021/07/06 21:50:56;;;;;;;;;20.80;20.80;;;;;24.45;84.99;100764.41;4935407;29;8853;-85
2021/07/06 21:53:51;;;;;;;;;21.80;21.80;;;;;24.30;85.66;100758.91;4936715;28;8873;-87
2021/07/06 21:56:47;;;;;;;;;20.20;20.20;;;;;24.46;84.90;100766.84;4947241;29;8861;-87
2021/07/06 21:59:42;;;;;;;;;21.60;20.80;;;;;24.18;85.97;100762.31;4925985;28;8896;-86
2021/07/06 22:02:38;;;;;;;;;23.60;23.60;;;;;24.32;85.52;100762.16;4949050;29;8837;-87
2021/07/06 22:05:34;;;;;;;;;23.00;23.00;;;;;23.94;87.15;100763.41;4936741;29;9587;-85
2021/07/06 22:08:29;;;;;;;;;22.80;22.40;;;;;24.17;86.20;100762.75;4936744;29;8893;-88
2021/07/06 22:11:25;;;;;;;;;23.80;23.80;;;;;24.19;86.51;100777.25;4924162;28;8849;-86
2021/07/06 22:14:20;;;;;;;;;21.40;21.00;;;;;24.18;86.31;100770.00;4933838;29;8898;-89
2021/07/06 22:17:16;;;;;;;;;21.80;21.80;;;;;24.04;86.72;100768.94;4937272;28;8873;-88
2021/07/06 22:20:12;;;;;;;;;20.00;20.00;;;;;24.20;85.78;100773.97;4940537;28;8868;-88
2021/07/06 22:23:08;;;;;;;;;21.40;21.40;;;;;24.21;86.43;100775.59;4956916;28;8872;-89
2021/07/06 22:26:04;;;;;;;;;23.00;23.00;;;;;23.96;87.26;100772.25;4956583;28;9661;-86
2021/07/06 22:29:00;;;;;;;;;23.80;22.80;;;;;23.98;87.37;100770.59;4956614;28;8844;-87
2021/07/06 22:31:55;;;;;;;;;19.40;19.40;;;;;24.26;85.54;100774.31;4954954;28;8906;-88
2021/07/06 22:34:51;;;;;;;;;20.80;20.80;;;;;24.32;85.43;100772.66;4973148;28;8865;-87
2021/07/06 22:37:46;;;;;;;;;23.00;23.00;;;;;24.37;85.38;100777.84;4974261;28;8892;-89
2021/07/06 22:40:42;;;;;;;;;21.20;21.20;;;;;24.07;86.40;100778.56;4975704;28;8861;-89
2021/07/06 22:43:39;;;;;;;;;21.00;21.00;;;;;24.20;85.38;100771.16;4976127;28;8845;-88
2021/07/06 22:46:34;;;;;;;;;18.40;18.40;;;;;24.24;85.29;100785.25;4974415;28;8869;-88
2021/07/06 22:49:30;;;;;;;;;20.60;20.20;;;;;24.43;84.33;100784.63;4973582;28;8845;-89
2021/07/06 22:52:26;;;;;;;;;19.20;19.00;;;;;24.16;85.04;100786.56;4936634;29;8893;-89
2021/07/06 22:55:22;;;;;;;;;17.00;16.20;;;;;24.22;85.20;100782.84;4939607;28;8874;-88
2021/07/06 22:58:17;;;;;;;;;18.40;18.40;;;;;24.07;85.68;100787.84;4935389;29;8846;-87
2021/07/06 23:01:13;;;;;;;;;21.20;21.20;;;;;23.92;86.11;100789.22;4934982;29;8873;-87
2021/07/06 23:04:09;;;;;;;;;18.20;18.20;;;;;24.03;86.14;100786.31;4950353;28;8900;-89
2021/07/06 23:07:05;;;;;;;;;18.40;18.40;;;;;23.95;86.28;100785.59;4956375;28;8890;-88
2021/07/06 23:10:01;;;;;;;;;18.60;18.60;;;;;24.09;85.00;100782.59;4953452;28;9527;-88
2021/07/06 23:12:56;;;;;;;;;17.80;17.80;;;;;24.16;85.02;100793.03;4966479;28;8867;-87
2021/07/06 23:15:52;;;;;;;;;21.20;20.00;;;;;23.89;85.37;100794.94;4955274;28;8865;-86
2021/07/06 23:18:48;;;;;;;;;16.80;15.40;;;;;23.83;86.00;100803.84;4942979;28;9045;-86
2021/07/06 23:21:43;;;;;;;;;17.20;17.20;;;;;23.68;86.95;100798.75;4954456;28;8835;-87
2021/07/06 23:24:39;;;;;;;;;17.00;17.00;;;;;23.47;87.89;100800.56;4942821;28;8851;-86
2021/07/06 23:27:35;;;;;;;;;17.00;17.00;;;;;23.55;87.83;100806.94;4947167;28;8875;-87
2021/07/06 23:30:31;;;;;;;;;21.80;21.80;;;;;23.48;88.99;100813.44;4955234;28;8843;-89
2021/07/06 23:33:27;;;;;;;;;19.80;19.80;;;;;23.68;87.26;100812.88;4942007;28;8839;-87
2021/07/06 23:36:22;;;;;;;;;18.00;18.00;;;;;23.51;87.43;100818.25;4956825;28;8858;-83
2021/07/06 23:39:18;;;;;;;;;14.40;14.40;;;;;23.95;86.16;100827.94;4973785;28;8943;-87
2021/07/06 23:42:14;;;;;;;;;17.60;17.60;;;;;23.98;85.78;100818.63;4960868;28;8841;-88
2021/07/06 23:45:10;;;;;;;;;19.00;18.40;;;;;23.83;85.87;100832.09;4960867;28;8853;-87
2021/07/06 23:48:06;;;;;;;;;17.40;16.00;;;;;23.93;85.80;100829.59;4967414;28;8965;-89
2021/07/06 23:51:02;;;;;;;;;17.40;17.40;;;;;23.94;85.79;100825.56;4947898;28;8894;-86
2021/07/06 23:53:57;;;;;;;;;16.60;16.60;;;;;23.88;85.73;100828.03;4960879;28;8848;-88
2021/07/06 23:56:53;;;;;;;;;19.20;19.20;;;;;23.79;86.05;100827.72;4973460;28;9658;-83
2021/07/06 23:59:48;;;;;;;;;19.60;19.60;;;;;23.95;85.46;100833.59;4960705;28;8876;-87
